createdAt,value
2023-02-14T06:19:02.793Z,81.68
2023-02-14T06:29:02.702Z,111.56
2023-02-14T06:39:02.692Z,90.08
2023-02-14T06:49:02.861Z,113.05
2023-02-14T06:59:02.914Z,128.28
2023-02-14T07:09:02.982Z,134.77
2023-02-14T07:19:02.850Z,138.90
2023-02-14T07:29:02.893Z,135.00
2023-02-14T07:39:02.981Z,135.00
2023-02-14T07:49:02.779Z,135.00
2023-02-14T07:59:02.920Z,135.00
2023-02-14T08:09:02.736Z,118.65
2023-02-14T08:19:02.841Z,130.88
2023-02-14T08:29:02.871Z,135.18
2023-02-14T08:39:03.011Z,135.09
2023-02-14T08:49:03.175Z,102.49
2023-02-14T08:59:03.899Z,90.00
2023-02-14T09:09:03.267Z,90.00
2023-02-14T09:19:03.465Z,91.52
2023-02-14T09:29:03.299Z,90.05
2023-02-14T09:39:03.267Z,90.00
2023-02-14T09:49:03.424Z,115.21
2023-02-14T09:59:03.278Z,130.24
2023-02-14T10:09:03.363Z,128.79
2023-02-14T10:19:03.384Z,127.35
2023-02-14T10:29:03.275Z,119.97
2023-02-14T10:39:03.332Z,134.59
2023-02-14T10:49:03.297Z,137.52
2023-02-14T10:59:03.263Z,139.57
2023-02-14T11:09:03.483Z,139.98
2023-02-14T11:19:03.459Z,128.52
2023-02-14T11:29:03.486Z,129.50
2023-02-14T11:39:03.407Z,126.93
2023-02-14T11:49:03.409Z,129.13
2023-02-14T11:59:03.505Z,137.48
2023-02-14T12:09:03.386Z,138.95
2023-02-14T12:19:03.388Z,155.84
2023-02-14T12:29:03.420Z,106.12
2023-02-14T12:39:03.295Z,101.25
2023-02-14T12:49:03.531Z,91.19
2023-02-14T12:59:03.528Z,91.65
2023-02-14T13:09:03.522Z,91.80
2023-02-14T13:19:03.575Z,90.66
2023-02-14T13:29:03.677Z,90.00
2023-02-14T13:39:03.659Z,90.00
2023-02-14T13:49:03.518Z,90.04
2023-02-14T13:59:03.653Z,90.00
2023-02-14T14:09:03.572Z,90.00
2023-02-14T14:19:03.843Z,90.13
2023-02-14T14:29:03.624Z,90.21
2023-02-14T14:39:03.575Z,90.00
2023-02-14T14:49:03.642Z,90.09
2023-02-14T14:59:03.723Z,90.00
2023-02-14T15:09:03.744Z,90.10
2023-02-14T15:19:03.665Z,90.00
2023-02-14T15:29:03.712Z,90.00
2023-02-14T15:39:03.586Z,91.16
2023-02-14T15:49:03.709Z,90.67
2023-02-14T15:59:03.612Z,92.42
2023-02-14T16:09:03.703Z,92.60
2023-02-14T16:19:03.626Z,95.83
2023-02-14T16:29:03.743Z,94.77
2023-02-14T16:39:03.654Z,92.26
2023-02-14T16:49:03.745Z,93.45
2023-02-14T16:59:03.804Z,91.96
2023-02-14T17:09:03.637Z,91.80
2023-02-14T17:19:03.778Z,92.75
2023-02-14T17:29:03.570Z,90.47
2023-02-14T17:39:03.713Z,90.17
2023-02-14T17:49:03.882Z,90.07
2023-02-14T17:59:03.902Z,91.41
2023-02-14T18:09:03.734Z,91.52
2023-02-14T18:19:03.891Z,100.66
2023-02-14T18:29:03.938Z,111.08
2023-02-14T18:39:03.868Z,99.70
2023-02-14T18:49:03.827Z,92.55
2023-02-14T18:59:03.944Z,92.32
2023-02-14T19:09:03.873Z,97.05
2023-02-14T19:19:03.844Z,100.32
